sensor_id;sensor_type;location;lat;lon;timestamp;P1;durP1;ratioP1;P2;durP2;ratioP2
38123;SDS011;23934;47.998;9.832;2023-12-07T00:01:29;0.40;;;0.40;;
38123;SDS011;23934;47.998;9.832;2023-12-07T00:03:55;0.00;;;0.00;;
38123;SDS011;23934;47.998;9.832;2023-12-07T00:06:21;12.52;;;5.07;;
38123;SDS011;23934;47.998;9.832;2023-12-07T00:08:47;0.00;;;0.00;;
38123;SDS011;23934;47.998;9.832;2023-12-07T00:11:12;0.08;;;0.08;;
38123;SDS011;23934;47.998;9.832;2023-12-07T00:13:38;1.45;;;1.35;;
38123;SDS011;23934;47.998;9.832;2023-12-07T00:16:04;0.20;;;0.20;;
38123;SDS011;23934;47.998;9.832;2023-12-07T00:18:30;0.00;;;0.00;;
38123;SDS011;23934;47.998;9.832;2023-12-07T00:20:56;0.93;;;0.93;;
38123;SDS011;23934;47.998;9.832;2023-12-07T00:23:22;0.00;;;0.00;;
38123;SDS011;23934;47.998;9.832;2023-12-07T00:25:48;0.17;;;0.17;;
38123;SDS011;23934;47.998;9.832;2023-12-07T00:28:17;0.30;;;0.30;;
38123;SDS011;23934;47.998;9.832;2023-12-07T00:30:50;0.00;;;0.00;;
38123;SDS011;23934;47.998;9.832;2023-12-07T00:33:16;0.70;;;0.70;;
38123;SDS011;23934;47.998;9.832;2023-12-07T00:35:42;1.65;;;0.75;;
38123;SDS011;23934;47.998;9.832;2023-12-07T00:38:08;0.00;;;0.00;;
38123;SDS011;23934;47.998;9.832;2023-12-07T00:40:35;0.10;;;0.10;;
38123;SDS011;23934;47.998;9.832;2023-12-07T00:43:03;1.35;;;0.57;;
38123;SDS011;23934;47.998;9.832;2023-12-07T00:45:29;0.77;;;0.77;;
38123;SDS011;23934;47.998;9.832;2023-12-07T00:47:55;0.00;;;0.00;;
38123;SDS011;23934;47.998;9.832;2023-12-07T00:50:21;0.10;;;0.10;;
38123;SDS011;23934;47.998;9.832;2023-12-07T00:52:47;0.00;;;0.00;;
38123;SDS011;23934;47.998;9.832;2023-12-07T00:55:13;0.13;;;0.13;;
38123;SDS011;23934;47.998;9.832;2023-12-07T00:57:39;0.05;;;0.05;;
38123;SDS011;23934;47.998;9.832;2023-12-07T01:00:06;0.10;;;0.10;;
38123;SDS011;23934;47.998;9.832;2023-12-07T01:02:32;0.20;;;0.20;;
38123;SDS011;23934;47.998;9.832;2023-12-07T01:04:59;0.00;;;0.00;;
38123;SDS011;23934;47.998;9.832;2023-12-07T01:07:25;2.42;;;2.28;;
38123;SDS011;23934;47.998;9.832;2023-12-07T01:09:51;0.22;;;0.22;;
38123;SDS011;23934;47.998;9.832;2023-12-07T01:12:17;0.10;;;0.10;;
38123;SDS011;23934;47.998;9.832;2023-12-07T01:14:43;0.45;;;0.45;;
38123;SDS011;23934;47.998;9.832;2023-12-07T01:17:09;0.00;;;0.00;;
38123;SDS011;23934;47.998;9.832;2023-12-07T01:19:35;0.75;;;0.50;;
38123;SDS011;23934;47.998;9.832;2023-12-07T01:22:01;1.00;;;0.52;;
38123;SDS011;23934;47.998;9.832;2023-12-07T01:24:27;0.63;;;0.63;;
38123;SDS011;23934;47.998;9.832;2023-12-07T01:26:54;0.10;;;0.10;;
38123;SDS011;23934;47.998;9.832;2023-12-07T01:29:20;2.60;;;2.38;;
38123;SDS011;23934;47.998;9.832;2023-12-07T01:31:46;0.82;;;0.82;;
38123;SDS011;23934;47.998;9.832;2023-12-07T01:34:12;0.22;;;0.22;;
38123;SDS011;23934;47.998;9.832;2023-12-07T01:36:38;4.03;;;1.75;;
38123;SDS011;23934;47.998;9.832;2023-12-07T01:39:03;0.00;;;0.00;;
38123;SDS011;23934;47.998;9.832;2023-12-07T01:41:29;0.20;;;0.20;;
38123;SDS011;23934;47.998;9.832;2023-12-07T01:43:56;0.30;;;0.30;;
38123;SDS011;23934;47.998;9.832;2023-12-07T01:46:22;5.72;;;4.30;;
38123;SDS011;23934;47.998;9.832;2023-12-07T01:48:48;0.20;;;0.20;;
38123;SDS011;23934;47.998;9.832;2023-12-07T01:51:14;1.08;;;1.05;;
38123;SDS011;23934;47.998;9.832;2023-12-07T01:53:40;0.55;;;0.55;;
38123;SDS011;23934;47.998;9.832;2023-12-07T01:56:06;0.13;;;0.13;;
38123;SDS011;23934;47.998;9.832;2023-12-07T01:58:34;1.55;;;1.00;;
38123;SDS011;23934;47.998;9.832;2023-12-07T02:01:00;0.17;;;0.17;;
38123;SDS011;23934;47.998;9.832;2023-12-07T02:03:27;1.13;;;1.05;;
38123;SDS011;23934;47.998;9.832;2023-12-07T02:05:54;0.30;;;0.30;;
38123;SDS011;23934;47.998;9.832;2023-12-07T02:08:20;0.00;;;0.00;;
38123;SDS011;23934;47.998;9.832;2023-12-07T02:10:46;0.20;;;0.20;;
38123;SDS011;23934;47.998;9.832;2023-12-07T02:13:12;0.00;;;0.00;;
38123;SDS011;23934;47.998;9.832;2023-12-07T02:15:38;1.65;;;1.55;;
38123;SDS011;23934;47.998;9.832;2023-12-07T02:18:06;0.20;;;0.20;;
38123;SDS011;23934;47.998;9.832;2023-12-07T02:23:03;0.00;;;0.00;;
38123;SDS011;23934;47.998;9.832;2023-12-07T02:28:15;0.03;;;0.03;;
38123;SDS011;23934;47.998;9.832;2023-12-07T02:30:42;0.00;;;0.00;;
38123;SDS011;23934;47.998;9.832;2023-12-07T02:33:08;1.20;;;0.80;;
38123;SDS011;23934;47.998;9.832;2023-12-07T02:35:34;0.30;;;0.30;;
38123;SDS011;23934;47.998;9.832;2023-12-07T02:38:00;0.00;;;0.00;;
38123;SDS011;23934;47.998;9.832;2023-12-07T02:40:27;1.65;;;1.45;;
38123;SDS011;23934;47.998;9.832;2023-12-07T02:42:54;0.32;;;0.32;;
38123;SDS011;23934;47.998;9.832;2023-12-07T02:45:20;0.20;;;0.20;;
38123;SDS011;23934;47.998;9.832;2023-12-07T02:47:46;0.00;;;0.00;;
38123;SDS011;23934;47.998;9.832;2023-12-07T02:50:12;0.00;;;0.00;;
38123;SDS011;23934;47.998;9.832;2023-12-07T02:52:39;0.00;;;0.00;;
38123;SDS011;23934;47.998;9.832;2023-12-07T02:55:05;22.08;;;2.53;;
38123;SDS011;23934;47.998;9.832;2023-12-07T02:57:32;0.00;;;0.00;;
38123;SDS011;23934;47.998;9.832;2023-12-07T03:00:02;0.10;;;0.10;;
38123;SDS011;23934;47.998;9.832;2023-12-07T03:02:31;0.10;;;0.10;;
38123;SDS011;23934;47.998;9.832;2023-12-07T03:04:57;0.00;;;0.00;;
38123;SDS011;23934;47.998;9.832;2023-12-07T03:07:23;0.00;;;0.00;;
38123;SDS011;23934;47.998;9.832;2023-12-07T03:09:49;0.10;;;0.10;;
38123;SDS011;23934;47.998;9.832;2023-12-07T03:12:15;0.00;;;0.00;;
38123;SDS011;23934;47.998;9.832;2023-12-07T03:14:41;0.65;;;0.57;;
38123;SDS011;23934;47.998;9.832;2023-12-07T03:17:07;0.03;;;0.03;;
38123;SDS011;23934;47.998;9.832;2023-12-07T03:19:37;0.00;;;0.00;;
38123;SDS011;23934;47.998;9.832;2023-12-07T03:22:03;0.00;;;0.00;;
38123;SDS011;23934;47.998;9.832;2023-12-07T03:24:31;0.00;;;0.00;;
38123;SDS011;23934;47.998;9.832;2023-12-07T03:26:57;0.43;;;0.43;;
38123;SDS011;23934;47.998;9.832;2023-12-07T03:29:23;0.85;;;0.85;;
38123;SDS011;23934;47.998;9.832;2023-12-07T03:31:49;0.00;;;0.00;;
38123;SDS011;23934;47.998;9.832;2023-12-07T03:34:15;0.00;;;0.00;;
38123;SDS011;23934;47.998;9.832;2023-12-07T03:36:47;6.40;;;1.58;;
38123;SDS011;23934;47.998;9.832;2023-12-07T03:39:14;0.00;;;0.00;;
38123;SDS011;23934;47.998;9.832;2023-12-07T03:41:40;0.00;;;0.00;;
38123;SDS011;23934;47.998;9.832;2023-12-07T03:44:06;0.00;;;0.00;;
38123;SDS011;23934;47.998;9.832;2023-12-07T03:46:32;0.00;;;0.00;;
38123;SDS011;23934;47.998;9.832;2023-12-07T03:48:58;2.00;;;0.70;;
38123;SDS011;23934;47.998;9.832;2023-12-07T03:51:25;0.00;;;0.00;;
38123;SDS011;23934;47.998;9.832;2023-12-07T03:53:51;0.00;;;0.00;;
38123;SDS011;23934;47.998;9.832;2023-12-07T03:56:24;0.00;;;0.00;;
38123;SDS011;23934;47.998;9.832;2023-12-07T03:58:50;0.00;;;0.00;;
38123;SDS011;23934;47.998;9.832;2023-12-07T04:01:16;0.00;;;0.00;;
38123;SDS011;23934;47.998;9.832;2023-12-07T04:03:42;0.00;;;0.00;;
38123;SDS011;23934;47.998;9.832;2023-12-07T04:06:08;0.20;;;0.20;;
38123;SDS011;23934;47.998;9.832;2023-12-07T04:08:34;0.05;;;0.05;;
38123;SDS011;23934;47.998;9.832;2023-12-07T04:11:00;0.00;;;0.00;;
38123;SDS011;23934;47.998;9.832;2023-12-07T04:13:26;0.63;;;0.63;;
38123;SDS011;23934;47.998;9.832;2023-12-07T04:15:52;0.00;;;0.00;;
38123;SDS011;23934;47.998;9.832;2023-12-07T04:18:18;0.00;;;0.00;;
38123;SDS011;23934;47.998;9.832;2023-12-07T04:20:43;0.00;;;0.00;;
38123;SDS011;23934;47.998;9.832;2023-12-07T04:23:10;0.00;;;0.00;;
38123;SDS011;23934;47.998;9.832;2023-12-07T04:25:36;0.00;;;0.00;;
38123;SDS011;23934;47.998;9.832;2023-12-07T04:28:02;0.00;;;0.00;;
38123;SDS011;23934;47.998;9.832;2023-12-07T04:30:28;0.00;;;0.00;;
38123;SDS011;23934;47.998;9.832;2023-12-07T04:32:54;0.10;;;0.10;;
38123;SDS011;23934;47.998;9.832;2023-12-07T04:35:20;0.00;;;0.00;;
38123;SDS011;23934;47.998;9.832;2023-12-07T04:37:46;0.05;;;0.05;;
38123;SDS011;23934;47.998;9.832;2023-12-07T04:40:11;0.00;;;0.00;;
38123;SDS011;23934;47.998;9.832;2023-12-07T04:42:37;0.00;;;0.00;;
38123;SDS011;23934;47.998;9.832;2023-12-07T04:45:04;0.00;;;0.00;;
38123;SDS011;23934;47.998;9.832;2023-12-07T04:47:30;0.00;;;0.00;;
38123;SDS011;23934;47.998;9.832;2023-12-07T04:49:58;0.00;;;0.00;;
38123;SDS011;23934;47.998;9.832;2023-12-07T04:52:23;1.13;;;1.13;;
38123;SDS011;23934;47.998;9.832;2023-12-07T04:54:49;0.00;;;0.00;;
38123;SDS011;23934;47.998;9.832;2023-12-07T04:57:15;2.83;;;2.50;;
38123;SDS011;23934;47.998;9.832;2023-12-07T04:59:41;0.00;;;0.00;;
38123;SDS011;23934;47.998;9.832;2023-12-07T05:02:12;0.10;;;0.10;;
38123;SDS011;23934;47.998;9.832;2023-12-07T05:04:38;0.57;;;0.57;;
38123;SDS011;23934;47.998;9.832;2023-12-07T05:07:04;0.00;;;0.00;;
38123;SDS011;23934;47.998;9.832;2023-12-07T05:09:30;0.15;;;0.15;;
38123;SDS011;23934;47.998;9.832;2023-12-07T05:11:56;5.60;;;5.07;;
38123;SDS011;23934;47.998;9.832;2023-12-07T05:14:23;0.10;;;0.10;;
38123;SDS011;23934;47.998;9.832;2023-12-07T05:16:49;0.00;;;0.00;;
38123;SDS011;23934;47.998;9.832;2023-12-07T05:19:20;0.30;;;0.30;;
38123;SDS011;23934;47.998;9.832;2023-12-07T05:21:46;0.00;;;0.00;;
38123;SDS011;23934;47.998;9.832;2023-12-07T05:24:12;1.65;;;1.55;;
38123;SDS011;23934;47.998;9.832;2023-12-07T05:26:40;0.52;;;0.52;;
38123;SDS011;23934;47.998;9.832;2023-12-07T05:29:06;0.00;;;0.00;;
38123;SDS011;23934;47.998;9.832;2023-12-07T05:31:32;0.00;;;0.00;;
38123;SDS011;23934;47.998;9.832;2023-12-07T05:33:58;0.00;;;0.00;;
38123;SDS011;23934;47.998;9.832;2023-12-07T05:36:24;1.55;;;0.95;;
38123;SDS011;23934;47.998;9.832;2023-12-07T05:38:51;0.00;;;0.00;;
38123;SDS011;23934;47.998;9.832;2023-12-07T05:41:17;0.00;;;0.00;;
38123;SDS011;23934;47.998;9.832;2023-12-07T05:43:43;0.77;;;0.28;;
38123;SDS011;23934;47.998;9.832;2023-12-07T05:46:09;3.03;;;0.85;;
38123;SDS011;23934;47.998;9.832;2023-12-07T05:48:35;5.78;;;2.50;;
38123;SDS011;23934;47.998;9.832;2023-12-07T05:51:01;1.88;;;1.65;;
38123;SDS011;23934;47.998;9.832;2023-12-07T05:53:28;0.15;;;0.15;;
38123;SDS011;23934;47.998;9.832;2023-12-07T05:55:54;0.00;;;0.00;;
38123;SDS011;23934;47.998;9.832;2023-12-07T05:58:20;0.00;;;0.00;;
38123;SDS011;23934;47.998;9.832;2023-12-07T06:00:46;0.00;;;0.00;;
38123;SDS011;23934;47.998;9.832;2023-12-07T06:03:15;0.00;;;0.00;;
38123;SDS011;23934;47.998;9.832;2023-12-07T06:05:41;0.30;;;0.30;;
38123;SDS011;23934;47.998;9.832;2023-12-07T06:08:08;0.17;;;0.17;;
38123;SDS011;23934;47.998;9.832;2023-12-07T06:10:34;0.00;;;0.00;;
38123;SDS011;23934;47.998;9.832;2023-12-07T06:13:00;0.85;;;0.85;;
38123;SDS011;23934;47.998;9.832;2023-12-07T06:15:27;0.00;;;0.00;;
38123;SDS011;23934;47.998;9.832;2023-12-07T06:17:53;0.00;;;0.00;;
38123;SDS011;23934;47.998;9.832;2023-12-07T06:20:20;0.17;;;0.17;;
38123;SDS011;23934;47.998;9.832;2023-12-07T06:22:46;0.00;;;0.00;;
38123;SDS011;23934;47.998;9.832;2023-12-07T06:25:12;0.17;;;0.17;;
38123;SDS011;23934;47.998;9.832;2023-12-07T06:27:38;0.00;;;0.00;;
38123;SDS011;23934;47.998;9.832;2023-12-07T06:30:05;0.00;;;0.00;;
38123;SDS011;23934;47.998;9.832;2023-12-07T06:32:31;0.00;;;0.00;;
38123;SDS011;23934;47.998;9.832;2023-12-07T06:34:57;0.00;;;0.00;;
38123;SDS011;23934;47.998;9.832;2023-12-07T06:37:23;0.00;;;0.00;;
38123;SDS011;23934;47.998;9.832;2023-12-07T06:39:50;0.00;;;0.00;;
38123;SDS011;23934;47.998;9.832;2023-12-07T06:42:16;3.35;;;2.75;;
38123;SDS011;23934;47.998;9.832;2023-12-07T06:44:43;3.92;;;1.90;;
38123;SDS011;23934;47.998;9.832;2023-12-07T06:47:09;0.00;;;0.00;;
38123;SDS011;23934;47.998;9.832;2023-12-07T06:49:35;0.00;;;0.00;;
38123;SDS011;23934;47.998;9.832;2023-12-07T06:52:01;0.00;;;0.00;;
38123;SDS011;23934;47.998;9.832;2023-12-07T06:54:27;0.00;;;0.00;;
38123;SDS011;23934;47.998;9.832;2023-12-07T06:56:53;0.00;;;0.00;;
38123;SDS011;23934;47.998;9.832;2023-12-07T06:59:19;0.00;;;0.00;;
38123;SDS011;23934;47.998;9.832;2023-12-07T07:01:45;0.08;;;0.08;;
38123;SDS011;23934;47.998;9.832;2023-12-07T07:04:11;0.00;;;0.00;;
38123;SDS011;23934;47.998;9.832;2023-12-07T07:06:38;0.00;;;0.00;;
38123;SDS011;23934;47.998;9.832;2023-12-07T07:09:03;0.00;;;0.00;;
38123;SDS011;23934;47.998;9.832;2023-12-07T07:11:30;0.13;;;0.13;;
38123;SDS011;23934;47.998;9.832;2023-12-07T07:13:56;0.00;;;0.00;;
38123;SDS011;23934;47.998;9.832;2023-12-07T07:16:22;0.00;;;0.00;;
38123;SDS011;23934;47.998;9.832;2023-12-07T07:18:48;0.90;;;0.90;;
38123;SDS011;23934;47.998;9.832;2023-12-07T07:21:14;0.00;;;0.00;;
38123;SDS011;23934;47.998;9.832;2023-12-07T07:23:40;0.68;;;0.68;;
38123;SDS011;23934;47.998;9.832;2023-12-07T07:26:05;0.00;;;0.00;;
38123;SDS011;23934;47.998;9.832;2023-12-07T07:28:33;0.10;;;0.10;;
38123;SDS011;23934;47.998;9.832;2023-12-07T07:30:59;0.10;;;0.10;;
38123;SDS011;23934;47.998;9.832;2023-12-07T07:33:25;0.20;;;0.20;;
38123;SDS011;23934;47.998;9.832;2023-12-07T07:35:51;0.10;;;0.10;;
38123;SDS011;23934;47.998;9.832;2023-12-07T07:38:17;0.25;;;0.25;;
38123;SDS011;23934;47.998;9.832;2023-12-07T07:40:43;0.00;;;0.00;;
38123;SDS011;23934;47.998;9.832;2023-12-07T07:43:10;0.10;;;0.10;;
38123;SDS011;23934;47.998;9.832;2023-12-07T07:45:36;0.85;;;0.85;;
38123;SDS011;23934;47.998;9.832;2023-12-07T07:48:02;0.00;;;0.00;;
38123;SDS011;23934;47.998;9.832;2023-12-07T07:50:28;5.45;;;3.10;;
38123;SDS011;23934;47.998;9.832;2023-12-07T07:52:54;5.72;;;5.00;;
38123;SDS011;23934;47.998;9.832;2023-12-07T07:55:20;0.00;;;0.00;;
38123;SDS011;23934;47.998;9.832;2023-12-07T07:57:46;6.82;;;6.18;;
38123;SDS011;23934;47.998;9.832;2023-12-07T08:00:12;4.93;;;4.45;;
38123;SDS011;23934;47.998;9.832;2023-12-07T08:02:38;1.05;;;1.05;;
38123;SDS011;23934;47.998;9.832;2023-12-07T08:05:04;0.05;;;0.05;;
38123;SDS011;23934;47.998;9.832;2023-12-07T08:07:30;0.00;;;0.00;;
38123;SDS011;23934;47.998;9.832;2023-12-07T08:09:56;0.00;;;0.00;;
38123;SDS011;23934;47.998;9.832;2023-12-07T08:12:22;0.55;;;0.55;;
38123;SDS011;23934;47.998;9.832;2023-12-07T08:14:49;0.45;;;0.45;;
38123;SDS011;23934;47.998;9.832;2023-12-07T08:17:15;0.35;;;0.35;;
38123;SDS011;23934;47.998;9.832;2023-12-07T08:19:41;0.90;;;0.90;;
38123;SDS011;23934;47.998;9.832;2023-12-07T08:22:07;0.30;;;0.30;;
38123;SDS011;23934;47.998;9.832;2023-12-07T08:24:33;0.45;;;0.45;;
38123;SDS011;23934;47.998;9.832;2023-12-07T08:27:00;0.22;;;0.22;;
38123;SDS011;23934;47.998;9.832;2023-12-07T08:29:28;0.00;;;0.00;;
38123;SDS011;23934;47.998;9.832;2023-12-07T08:31:54;2.05;;;1.08;;
38123;SDS011;23934;47.998;9.832;2023-12-07T08:34:20;0.40;;;0.40;;
38123;SDS011;23934;47.998;9.832;2023-12-07T08:36:46;0.00;;;0.00;;
38123;SDS011;23934;47.998;9.832;2023-12-07T08:39:12;6.13;;;2.17;;
38123;SDS011;23934;47.998;9.832;2023-12-07T08:41:38;0.00;;;0.00;;
38123;SDS011;23934;47.998;9.832;2023-12-07T08:44:04;0.00;;;0.00;;
38123;SDS011;23934;47.998;9.832;2023-12-07T08:46:30;0.10;;;0.10;;
38123;SDS011;23934;47.998;9.832;2023-12-07T08:48:56;3.20;;;1.27;;
38123;SDS011;23934;47.998;9.832;2023-12-07T08:51:22;0.00;;;0.00;;
38123;SDS011;23934;47.998;9.832;2023-12-07T08:53:49;0.08;;;0.08;;
38123;SDS011;23934;47.998;9.832;2023-12-07T08:56:16;0.43;;;0.43;;
38123;SDS011;23934;47.998;9.832;2023-12-07T08:58:42;0.10;;;0.10;;
38123;SDS011;23934;47.998;9.832;2023-12-07T09:01:09;0.65;;;0.65;;
38123;SDS011;23934;47.998;9.832;2023-12-07T09:03:36;0.47;;;0.47;;
38123;SDS011;23934;47.998;9.832;2023-12-07T09:06:02;7.38;;;4.47;;
38123;SDS011;23934;47.998;9.832;2023-12-07T09:08:30;0.77;;;0.77;;
38123;SDS011;23934;47.998;9.832;2023-12-07T09:10:56;0.00;;;0.00;;
38123;SDS011;23934;47.998;9.832;2023-12-07T09:13:22;0.88;;;0.88;;
38123;SDS011;23934;47.998;9.832;2023-12-07T09:15:48;0.20;;;0.20;;
38123;SDS011;23934;47.998;9.832;2023-12-07T09:18:14;0.30;;;0.30;;
38123;SDS011;23934;47.998;9.832;2023-12-07T09:20:40;0.10;;;0.10;;
38123;SDS011;23934;47.998;9.832;2023-12-07T09:23:11;1.20;;;1.10;;
38123;SDS011;23934;47.998;9.832;2023-12-07T09:25:38;4.35;;;2.20;;
38123;SDS011;23934;47.998;9.832;2023-12-07T09:28:04;1.45;;;1.35;;
38123;SDS011;23934;47.998;9.832;2023-12-07T09:30:29;5.80;;;2.70;;
38123;SDS011;23934;47.998;9.832;2023-12-07T09:32:55;2.10;;;1.27;;
38123;SDS011;23934;47.998;9.832;2023-12-07T09:35:21;1.55;;;1.45;;
38123;SDS011;23934;47.998;9.832;2023-12-07T09:37:48;6.57;;;2.88;;
38123;SDS011;23934;47.998;9.832;2023-12-07T09:40:14;2.70;;;1.70;;
38123;SDS011;23934;47.998;9.832;2023-12-07T09:42:42;3.75;;;2.95;;
38123;SDS011;23934;47.998;9.832;2023-12-07T09:45:08;3.00;;;2.10;;
38123;SDS011;23934;47.998;9.832;2023-12-07T09:47:34;2.83;;;1.58;;
38123;SDS011;23934;47.998;9.832;2023-12-07T09:50:02;3.47;;;2.08;;
38123;SDS011;23934;47.998;9.832;2023-12-07T09:52:29;6.53;;;2.88;;
38123;SDS011;23934;47.998;9.832;2023-12-07T09:54:55;3.20;;;1.67;;
38123;SDS011;23934;47.998;9.832;2023-12-07T09:57:22;9.93;;;3.30;;
38123;SDS011;23934;47.998;9.832;2023-12-07T09:59:48;8.20;;;3.83;;
38123;SDS011;23934;47.998;9.832;2023-12-07T10:02:14;13.02;;;3.70;;
38123;SDS011;23934;47.998;9.832;2023-12-07T10:04:41;6.78;;;2.65;;
38123;SDS011;23934;47.998;9.832;2023-12-07T10:07:07;4.82;;;2.25;;
38123;SDS011;23934;47.998;9.832;2023-12-07T10:09:38;12.20;;;2.85;;
38123;SDS011;23934;47.998;9.832;2023-12-07T10:12:04;5.90;;;2.92;;
38123;SDS011;23934;47.998;9.832;2023-12-07T10:14:31;6.90;;;3.13;;
38123;SDS011;23934;47.998;9.832;2023-12-07T10:16:57;7.43;;;2.70;;
38123;SDS011;23934;47.998;9.832;2023-12-07T10:19:23;4.07;;;2.20;;
38123;SDS011;23934;47.998;9.832;2023-12-07T10:21:50;10.38;;;2.78;;
38123;SDS011;23934;47.998;9.832;2023-12-07T10:24:20;8.13;;;3.05;;
38123;SDS011;23934;47.998;9.832;2023-12-07T10:26:47;8.70;;;4.00;;
38123;SDS011;23934;47.998;9.832;2023-12-07T10:29:13;6.07;;;2.85;;
38123;SDS011;23934;47.998;9.832;2023-12-07T10:31:39;8.55;;;3.15;;
38123;SDS011;23934;47.998;9.832;2023-12-07T10:34:05;4.50;;;2.45;;
38123;SDS011;23934;47.998;9.832;2023-12-07T10:36:31;7.18;;;2.88;;
38123;SDS011;23934;47.998;9.832;2023-12-07T10:39:00;10.68;;;3.22;;
38123;SDS011;23934;47.998;9.832;2023-12-07T10:41:26;4.00;;;2.17;;
38123;SDS011;23934;47.998;9.832;2023-12-07T10:44:01;9.85;;;4.10;;
38123;SDS011;23934;47.998;9.832;2023-12-07T10:46:27;4.75;;;2.40;;
38123;SDS011;23934;47.998;9.832;2023-12-07T10:48:59;8.20;;;2.20;;
38123;SDS011;23934;47.998;9.832;2023-12-07T10:51:41;3.42;;;2.03;;
38123;SDS011;23934;47.998;9.832;2023-12-07T10:54:07;3.03;;;1.52;;
38123;SDS011;23934;47.998;9.832;2023-12-07T10:56:39;4.88;;;1.80;;
38123;SDS011;23934;47.998;9.832;2023-12-07T10:59:09;1.83;;;1.45;;
38123;SDS011;23934;47.998;9.832;2023-12-07T11:01:38;2.70;;;1.58;;
38123;SDS011;23934;47.998;9.832;2023-12-07T11:04:05;6.45;;;2.28;;
38123;SDS011;23934;47.998;9.832;2023-12-07T11:06:31;8.07;;;2.28;;
38123;SDS011;23934;47.998;9.832;2023-12-07T11:08:58;5.25;;;2.65;;
38123;SDS011;23934;47.998;9.832;2023-12-07T11:11:29;1.33;;;1.05;;
38123;SDS011;23934;47.998;9.832;2023-12-07T11:13:58;5.32;;;1.80;;
38123;SDS011;23934;47.998;9.832;2023-12-07T11:16:28;5.93;;;1.95;;
38123;SDS011;23934;47.998;9.832;2023-12-07T11:18:54;1.92;;;1.17;;
38123;SDS011;23934;47.998;9.832;2023-12-07T11:21:20;4.43;;;2.50;;
38123;SDS011;23934;47.998;9.832;2023-12-07T11:23:46;4.10;;;2.53;;
38123;SDS011;23934;47.998;9.832;2023-12-07T11:26:12;2.83;;;1.63;;
38123;SDS011;23934;47.998;9.832;2023-12-07T11:28:38;4.50;;;2.05;;
38123;SDS011;23934;47.998;9.832;2023-12-07T11:31:07;4.97;;;1.88;;
38123;SDS011;23934;47.998;9.832;2023-12-07T11:33:34;7.18;;;2.20;;
38123;SDS011;23934;47.998;9.832;2023-12-07T11:38:28;8.15;;;2.63;;
38123;SDS011;23934;47.998;9.832;2023-12-07T11:40:55;2.40;;;1.98;;
38123;SDS011;23934;47.998;9.832;2023-12-07T11:46:09;3.83;;;1.92;;
38123;SDS011;23934;47.998;9.832;2023-12-07T11:48:35;5.28;;;2.58;;
38123;SDS011;23934;47.998;9.832;2023-12-07T11:51:02;4.32;;;2.05;;
38123;SDS011;23934;47.998;9.832;2023-12-07T11:53:29;3.30;;;2.03;;
38123;SDS011;23934;47.998;9.832;2023-12-07T11:55:56;5.82;;;2.45;;
38123;SDS011;23934;47.998;9.832;2023-12-07T11:58:24;6.35;;;2.53;;
38123;SDS011;23934;47.998;9.832;2023-12-07T12:00:50;5.10;;;2.83;;
38123;SDS011;23934;47.998;9.832;2023-12-07T12:03:17;3.38;;;1.63;;
38123;SDS011;23934;47.998;9.832;2023-12-07T12:05:43;3.60;;;1.83;;
38123;SDS011;23934;47.998;9.832;2023-12-07T12:08:09;3.78;;;2.00;;
38123;SDS011;23934;47.998;9.832;2023-12-07T12:10:35;6.07;;;2.10;;
38123;SDS011;23934;47.998;9.832;2023-12-07T12:13:04;4.60;;;2.35;;
38123;SDS011;23934;47.998;9.832;2023-12-07T12:15:30;8.00;;;2.60;;
38123;SDS011;23934;47.998;9.832;2023-12-07T12:17:57;2.95;;;1.65;;
38123;SDS011;23934;47.998;9.832;2023-12-07T12:20:26;3.53;;;2.22;;
38123;SDS011;23934;47.998;9.832;2023-12-07T12:22:53;6.47;;;2.83;;
38123;SDS011;23934;47.998;9.832;2023-12-07T12:25:25;5.43;;;1.85;;
38123;SDS011;23934;47.998;9.832;2023-12-07T12:27:53;8.52;;;2.55;;
38123;SDS011;23934;47.998;9.832;2023-12-07T12:30:20;5.50;;;2.47;;
38123;SDS011;23934;47.998;9.832;2023-12-07T12:32:47;5.68;;;2.60;;
38123;SDS011;23934;47.998;9.832;2023-12-07T12:35:13;5.80;;;2.50;;
38123;SDS011;23934;47.998;9.832;2023-12-07T12:37:40;3.95;;;2.13;;
38123;SDS011;23934;47.998;9.832;2023-12-07T12:40:07;6.07;;;2.92;;
38123;SDS011;23934;47.998;9.832;2023-12-07T12:42:33;7.68;;;3.20;;
38123;SDS011;23934;47.998;9.832;2023-12-07T12:45:02;11.75;;;2.97;;
38123;SDS011;23934;47.998;9.832;2023-12-07T12:47:28;6.32;;;2.38;;
38123;SDS011;23934;47.998;9.832;2023-12-07T12:49:54;7.88;;;2.55;;
38123;SDS011;23934;47.998;9.832;2023-12-07T12:52:20;7.75;;;2.95;;
38123;SDS011;23934;47.998;9.832;2023-12-07T12:54:49;8.45;;;2.58;;
38123;SDS011;23934;47.998;9.832;2023-12-07T12:57:15;8.88;;;2.67;;
38123;SDS011;23934;47.998;9.832;2023-12-07T12:59:41;8.75;;;2.70;;
38123;SDS011;23934;47.998;9.832;2023-12-07T13:02:07;8.27;;;2.97;;
38123;SDS011;23934;47.998;9.832;2023-12-07T13:04:34;6.03;;;2.55;;
38123;SDS011;23934;47.998;9.832;2023-12-07T13:07:00;7.90;;;3.83;;
38123;SDS011;23934;47.998;9.832;2023-12-07T13:09:25;8.05;;;2.60;;
38123;SDS011;23934;47.998;9.832;2023-12-07T13:11:51;5.97;;;2.83;;
38123;SDS011;23934;47.998;9.832;2023-12-07T13:14:17;7.97;;;2.83;;
38123;SDS011;23934;47.998;9.832;2023-12-07T13:16:43;19.38;;;2.90;;
38123;SDS011;23934;47.998;9.832;2023-12-07T13:19:09;8.55;;;2.63;;
38123;SDS011;23934;47.998;9.832;2023-12-07T13:21:35;5.20;;;2.08;;
38123;SDS011;23934;47.998;9.832;2023-12-07T13:24:01;6.35;;;2.50;;
38123;SDS011;23934;47.998;9.832;2023-12-07T13:26:30;9.60;;;3.38;;
38123;SDS011;23934;47.998;9.832;2023-12-07T13:28:56;6.18;;;2.30;;
38123;SDS011;23934;47.998;9.832;2023-12-07T13:31:22;7.07;;;3.40;;
38123;SDS011;23934;47.998;9.832;2023-12-07T13:33:48;4.60;;;2.33;;
38123;SDS011;23934;47.998;9.832;2023-12-07T13:36:14;4.47;;;1.67;;
38123;SDS011;23934;47.998;9.832;2023-12-07T13:38:42;6.55;;;2.60;;
38123;SDS011;23934;47.998;9.832;2023-12-07T13:41:08;5.45;;;2.85;;
38123;SDS011;23934;47.998;9.832;2023-12-07T13:43:34;5.88;;;2.45;;
38123;SDS011;23934;47.998;9.832;2023-12-07T13:46:00;6.80;;;3.22;;
38123;SDS011;23934;47.998;9.832;2023-12-07T13:48:26;6.88;;;3.47;;
38123;SDS011;23934;47.998;9.832;2023-12-07T13:50:52;4.13;;;2.15;;
38123;SDS011;23934;47.998;9.832;2023-12-07T13:53:18;4.93;;;2.38;;
38123;SDS011;23934;47.998;9.832;2023-12-07T13:55:44;4.40;;;1.70;;
38123;SDS011;23934;47.998;9.832;2023-12-07T13:58:11;4.57;;;1.48;;
38123;SDS011;23934;47.998;9.832;2023-12-07T14:00:37;10.82;;;3.28;;
38123;SDS011;23934;47.998;9.832;2023-12-07T14:03:03;6.20;;;2.83;;
38123;SDS011;23934;47.998;9.832;2023-12-07T14:05:29;5.68;;;2.05;;
38123;SDS011;23934;47.998;9.832;2023-12-07T14:07:56;5.25;;;2.67;;
38123;SDS011;23934;47.998;9.832;2023-12-07T14:10:22;9.05;;;2.85;;
38123;SDS011;23934;47.998;9.832;2023-12-07T14:12:48;8.43;;;2.45;;
38123;SDS011;23934;47.998;9.832;2023-12-07T14:15:14;4.10;;;2.05;;
38123;SDS011;23934;47.998;9.832;2023-12-07T14:17:40;11.48;;;2.72;;
38123;SDS011;23934;47.998;9.832;2023-12-07T14:20:06;4.05;;;2.05;;
38123;SDS011;23934;47.998;9.832;2023-12-07T14:22:33;18.58;;;1.80;;
38123;SDS011;23934;47.998;9.832;2023-12-07T14:25:00;14.50;;;3.25;;
38123;SDS011;23934;47.998;9.832;2023-12-07T14:27:26;8.35;;;2.80;;
38123;SDS011;23934;47.998;9.832;2023-12-07T14:29:52;5.47;;;2.17;;
38123;SDS011;23934;47.998;9.832;2023-12-07T14:32:18;10.13;;;2.63;;
38123;SDS011;23934;47.998;9.832;2023-12-07T14:34:44;6.03;;;2.75;;
38123;SDS011;23934;47.998;9.832;2023-12-07T14:37:10;4.13;;;1.83;;
38123;SDS011;23934;47.998;9.832;2023-12-07T14:39:36;4.28;;;1.85;;
38123;SDS011;23934;47.998;9.832;2023-12-07T14:42:02;4.30;;;2.67;;
38123;SDS011;23934;47.998;9.832;2023-12-07T14:44:29;8.40;;;2.92;;
38123;SDS011;23934;47.998;9.832;2023-12-07T14:46:56;2.63;;;1.65;;
38123;SDS011;23934;47.998;9.832;2023-12-07T14:49:22;7.28;;;2.90;;
38123;SDS011;23934;47.998;9.832;2023-12-07T14:51:48;4.65;;;2.25;;
38123;SDS011;23934;47.998;9.832;2023-12-07T14:54:14;4.53;;;2.30;;